Time;durP1;ratioP1;P1;durP2;ratioP2;P2;SDS_P1;SDS_P2;PMS_P1;PMS_P2;Temp;Humidity;BMP_temperature;BMP_pressure;BME280_temperature;BME280_humidity;BME280_pressure;Samples;Min_cycle;Max_cycle;Signal;HPM_P1;HPM_P2
2023/06/18 00:00:21;;;;;;;35.38;33.88;;;;;;;-141.02;100.00;107971.50;5133421;27;20245;-69
2023/06/18 00:02:48;;;;;;;34.33;32.90;;;;;;;-141.02;100.00;107971.50;5133079;27;20193;-69
2023/06/18 00:05:15;;;;;;;31.73;30.42;;;;;;;-141.02;100.00;107971.50;5133420;27;20196;-69
2023/06/18 00:07:43;;;;;;;31.90;30.60;;;;;;;-141.02;100.00;107971.50;5133050;27;20638;-69
2023/06/18 00:10:11;;;;;;;30.50;29.20;;;;;;;-141.02;100.00;107971.50;5133052;27;20192;-70
2023/06/18 00:12:38;;;;;;;28.95;27.75;;;;;;;-141.02;100.00;107971.50;5133003;27;20283;-70
2023/06/18 00:15:05;;;;;;;26.23;25.15;;;;;;;-141.02;100.00;107971.50;5132946;28;20311;-70
2023/06/18 00:17:32;;;;;;;25.10;24.10;;;;;;;-141.02;100.00;107971.50;5132828;27;20705;-70
2023/06/18 00:19:59;;;;;;;22.88;21.98;;;;;;;-141.02;100.00;107971.50;5133201;28;20196;-70
2023/06/18 00:22:26;;;;;;;22.05;21.25;;;;;;;-141.02;100.00;107971.50;5132956;28;20231;-71
2023/06/18 00:24:55;;;;;;;22.20;21.40;;;;;;;-141.02;100.00;107971.50;5133157;28;20316;-70
2023/06/18 00:27:22;;;;;;;21.70;20.90;;;;;;;-141.02;100.00;107971.50;5132884;28;20199;-70
2023/06/18 00:29:49;;;;;;;21.70;20.90;;;;;;;-141.02;100.00;107971.50;5133052;28;20192;-71
2023/06/18 00:32:16;;;;;;;22.33;21.52;;;;;;;-141.02;100.00;107971.50;5132817;28;20279;-70
2023/06/18 00:34:46;;;;;;;20.15;19.45;;;;;;;-141.02;100.00;107971.50;5132701;28;20310;-70
2023/06/18 00:37:13;;;;;;;47.75;45.65;;;;;;;-141.02;100.00;107971.50;5133022;28;20200;-69
2023/06/18 00:39:40;;;;;;;21.13;20.33;;;;;;;-141.02;100.00;107971.50;5133082;27;20192;-69
2023/06/18 00:42:11;;;;;;;40.63;38.83;;;;;;;-141.02;100.00;107971.50;5132651;27;20722;-70
2023/06/18 00:44:39;;;;;;;20.10;19.40;;;;;;;-141.02;100.00;107971.50;5136416;27;20194;-69
2023/06/18 00:47:07;;;;;;;19.88;19.17;;;;;;;-141.02;100.00;107971.50;5137051;27;20202;-70
2023/06/18 00:49:35;;;;;;;47.45;45.25;;;;;;;-141.02;100.00;107971.50;5137017;27;20206;-69
2023/06/18 00:52:03;;;;;;;42.63;40.72;;;;;;;-141.02;100.00;107971.50;5136724;27;20196;-69
2023/06/18 00:54:34;;;;;;;41.25;39.45;;;;;;;-141.02;100.00;107971.50;5136539;27;20311;-70
2023/06/18 00:57:03;;;;;;;43.17;41.28;;;;;;;-141.02;100.00;107971.50;5137055;27;20198;-70
2023/06/18 00:59:32;;;;;;;44.15;42.15;;;;;;;-141.02;100.00;107971.50;5136788;27;20202;-69
2023/06/18 01:02:01;;;;;;;44.65;42.65;;;;;;;-141.02;100.00;107971.50;5136738;27;20197;-69
2023/06/18 01:04:32;;;;;;;22.90;22.00;;;;;;;-141.02;100.00;107971.50;5136371;27;20204;-70
2023/06/18 01:07:01;;;;;;;23.27;22.38;;;;;;;-141.02;100.00;107971.50;5136511;27;20253;-70
2023/06/18 01:09:30;;;;;;;37.35;35.55;;;;;;;-141.02;100.00;107971.50;5136293;27;20669;-71
2023/06/18 01:12:00;;;;;;;47.63;45.33;;;;;;;-141.02;100.00;107971.50;5136277;27;20626;-71
2023/06/18 01:14:30;;;;;;;51.60;49.10;;;;;;;-141.02;100.00;107971.50;5136146;27;20257;-71
2023/06/18 01:17:03;;;;;;;52.67;50.08;;;;;;;-141.02;100.00;107971.50;5136008;27;20224;-71
2023/06/18 01:19:43;;;;;;;54.22;51.53;;;;;;;-141.02;100.00;107971.50;5136544;27;20267;-71
2023/06/18 01:22:21;;;;;;;24.42;23.33;;;;;;;-141.02;100.00;107971.50;5136494;27;20241;-72
2023/06/18 01:24:52;;;;;;;25.00;23.90;;;;;;;-141.02;100.00;107971.50;5136433;27;20184;-71
2023/06/18 01:27:21;;;;;;;25.60;24.50;;;;;;;-141.02;100.00;107971.50;5136065;27;20196;-71
2023/06/18 01:29:50;;;;;;;52.50;49.60;;;;;;;-141.02;100.00;107971.50;5136207;27;20193;-72
2023/06/18 01:32:18;;;;;;;56.72;53.83;;;;;;;-141.02;100.00;107971.50;5136220;27;20261;-71
2023/06/18 01:34:45;;;;;;;59.00;56.00;;;;;;;-141.02;100.00;107971.50;5135730;27;20777;-71
2023/06/18 01:37:24;;;;;;;58.92;55.92;;;;;;;-141.02;100.00;107971.50;5136143;27;20197;-71
2023/06/18 01:40:00;;;;;;;57.83;54.85;;;;;;;-141.02;100.00;107971.50;5136114;27;20189;-70
2023/06/18 01:42:31;;;;;;;25.92;24.73;;;;;;;-141.02;100.00;107971.50;5136147;27;20184;-71
2023/06/18 01:45:05;;;;;;;25.75;24.55;;;;;;;-141.02;100.00;107971.50;5135698;27;20642;-71
2023/06/18 01:47:35;;;;;;;26.50;25.30;;;;;;;-141.02;100.00;107971.50;5135966;27;20257;-71
2023/06/18 01:50:04;;;;;;;52.53;49.83;;;;;;;-141.02;100.00;107971.50;5136127;27;20194;-71
2023/06/18 01:52:35;;;;;;;47.30;45.00;;;;;;;-141.02;100.00;107971.50;5135461;27;20651;-70
2023/06/18 01:55:03;;;;;;;57.20;54.30;;;;;;;-141.02;100.00;107971.50;5134863;27;20750;-71
2023/06/18 01:57:32;;;;;;;57.00;54.10;;;;;;;-141.02;100.00;107971.50;5135401;27;20189;-71
2023/06/18 01:59:59;;;;;;;56.83;54.03;;;;;;;-141.02;100.00;107971.50;5135698;27;20196;-70
2023/06/18 02:02:26;;;;;;;25.25;24.15;;;;;;;-141.02;100.00;107971.50;5135644;27;20193;-70
2023/06/18 02:04:54;;;;;;;24.45;23.35;;;;;;;-141.02;100.00;107971.50;5135660;27;20192;-71
2023/06/18 02:07:21;;;;;;;25.30;24.20;;;;;;;-141.02;100.00;107971.50;5135273;27;20193;-70
2023/06/18 02:09:48;;;;;;;53.80;51.10;;;;;;;-141.02;100.00;107971.50;5135504;27;20188;-70
2023/06/18 02:12:15;;;;;;;57.42;54.53;;;;;;;-141.02;100.00;107971.50;5135453;27;20306;-70
2023/06/18 02:14:42;;;;;;;59.08;56.17;;;;;;;-141.02;100.00;107971.50;5135276;27;20231;-70
2023/06/18 02:17:10;;;;;;;60.70;57.65;;;;;;;-141.02;100.00;107971.50;5134818;27;20275;-70
2023/06/18 02:19:37;;;;;;;29.10;27.80;;;;;;;-141.02;100.00;107971.50;5135294;27;20567;-71
2023/06/18 02:22:05;;;;;;;25.55;24.45;;;;;;;-141.02;100.00;107971.50;5135298;27;20193;-70
2023/06/18 02:24:34;;;;;;;23.02;22.02;;;;;;;-141.02;100.00;107971.50;5134888;27;20283;-70
2023/06/18 02:27:01;;;;;;;38.08;36.22;;;;;;;-141.02;100.00;107971.50;5134831;27;20734;-70
2023/06/18 02:29:28;;;;;;;55.45;52.75;;;;;;;-141.02;100.00;107971.50;5135112;27;20222;-70
2023/06/18 02:31:55;;;;;;;53.88;51.28;;;;;;;-141.02;100.00;107971.50;5134755;27;20745;-70
2023/06/18 02:34:27;;;;;;;58.95;56.05;;;;;;;-141.02;100.00;107971.50;5134640;27;20224;-70
2023/06/18 02:36:54;;;;;;;58.25;55.35;;;;;;;-141.02;100.00;107971.50;5134917;27;20287;-70
2023/06/18 02:39:22;;;;;;;24.65;23.65;;;;;;;-141.02;100.00;107971.50;5134943;27;20193;-70
2023/06/18 02:41:49;;;;;;;25.15;24.15;;;;;;;-141.02;100.00;107971.50;5134942;27;20284;-69
2023/06/18 02:44:17;;;;;;;24.80;23.80;;;;;;;-141.02;100.00;107971.50;5134854;27;20203;-70
2023/06/18 02:46:44;;;;;;;31.17;29.73;;;;;;;-141.02;100.00;107971.50;5134446;27;20252;-70
2023/06/18 02:49:11;;;;;;;50.42;48.03;;;;;;;-141.02;100.00;107971.50;5134395;27;20220;-69
2023/06/18 02:51:38;;;;;;;48.08;45.78;;;;;;;-141.02;100.00;107971.50;5134867;27;20196;-69
2023/06/18 02:54:05;;;;;;;51.45;49.03;;;;;;;-141.02;100.00;107971.50;5134297;27;20253;-69
2023/06/18 02:56:33;;;;;;;47.65;45.45;;;;;;;-141.02;100.00;107971.50;5134485;27;20232;-70
2023/06/18 02:59:00;;;;;;;23.10;22.20;;;;;;;-141.02;100.00;107971.50;5134592;27;20284;-70
2023/06/18 03:01:27;;;;;;;23.10;22.20;;;;;;;-141.02;100.00;107971.50;5134142;27;20628;-69
2023/06/18 03:03:55;;;;;;;24.10;23.10;;;;;;;-141.02;100.00;107971.50;5134155;27;20246;-70
2023/06/18 03:06:23;;;;;;;34.90;33.25;;;;;;;-141.02;100.00;107971.50;5133592;27;20282;-70
2023/06/18 03:08:50;;;;;;;48.95;46.63;;;;;;;-141.02;100.00;107971.50;5134281;27;20261;-69
2023/06/18 03:11:17;;;;;;;54.55;51.95;;;;;;;-141.02;100.00;107971.50;5134082;27;20745;-69
2023/06/18 03:13:45;;;;;;;55.30;52.60;;;;;;;-141.02;100.00;107971.50;5134257;27;20192;-70
2023/06/18 03:16:12;;;;;;;50.47;48.08;;;;;;;-141.02;100.00;107971.50;5133681;27;20236;-69
2023/06/18 03:18:39;;;;;;;24.50;23.50;;;;;;;-141.02;100.00;107971.50;5134198;27;20224;-70
2023/06/18 03:21:06;;;;;;;25.90;24.80;;;;;;;-141.02;100.00;107971.50;5133919;27;20193;-69
2023/06/18 03:23:33;;;;;;;26.42;25.33;;;;;;;-141.02;100.00;107971.50;5134145;27;20196;-70
2023/06/18 03:26:00;;;;;;;51.45;48.65;;;;;;;-141.02;100.00;107971.50;5133992;27;20192;-70
2023/06/18 03:28:27;;;;;;;57.17;54.28;;;;;;;-141.02;100.00;107971.50;5134523;27;20196;-70
2023/06/18 03:30:56;;;;;;;62.03;58.92;;;;;;;-141.02;100.00;107971.50;5133591;27;20188;-70
2023/06/18 03:33:23;;;;;;;62.33;59.22;;;;;;;-141.02;100.00;107971.50;5133910;27;20249;-70
2023/06/18 03:35:51;;;;;;;54.95;52.25;;;;;;;-141.02;100.00;107971.50;5133450;27;20743;-70
2023/06/18 03:38:18;;;;;;;28.00;26.80;;;;;;;-141.02;100.00;107971.50;5133574;27;20655;-70
2023/06/18 03:40:45;;;;;;;26.25;25.15;;;;;;;-141.02;100.00;107971.50;5133548;27;20224;-71
2023/06/18 03:43:12;;;;;;;27.77;26.60;;;;;;;-141.02;100.00;107971.50;5133730;27;20271;-70
2023/06/18 03:45:39;;;;;;;57.63;54.60;;;;;;;-141.02;100.00;107971.50;5133652;27;20221;-70
2023/06/18 03:48:08;;;;;;;63.28;60.05;;;;;;;-141.02;100.00;107971.50;5133730;27;20197;-70
2023/06/18 03:50:35;;;;;;;66.47;63.08;;;;;;;-141.02;100.00;107971.50;5133343;27;20287;-70
2023/06/18 03:53:02;;;;;;;64.10;60.83;;;;;;;-141.02;100.00;107971.50;5133334;27;20196;-70
2023/06/18 03:55:29;;;;;;;65.72;62.42;;;;;;;-141.02;100.00;107971.50;5133212;27;20712;-70
2023/06/18 03:57:56;;;;;;;29.50;28.20;;;;;;;-141.02;100.00;107971.50;5133615;27;20283;-70
2023/06/18 04:00:23;;;;;;;29.15;27.95;;;;;;;-141.02;100.00;107971.50;5133207;27;20199;-70
2023/06/18 04:02:51;;;;;;;27.35;26.23;;;;;;;-141.02;100.00;107971.50;5133447;27;20279;-70
2023/06/18 04:05:20;;;;;;;43.40;41.22;;;;;;;-141.02;100.00;107971.50;5133053;27;20613;-70
2023/06/18 04:07:47;;;;;;;55.65;52.95;;;;;;;-141.02;100.00;107971.50;5133463;27;20275;-70
2023/06/18 04:10:14;;;;;;;51.75;49.25;;;;;;;-141.02;100.00;107971.50;5133136;27;20279;-69
2023/06/18 04:12:41;;;;;;;48.20;46.00;;;;;;;-141.02;100.00;107971.50;5133048;27;20228;-69
2023/06/18 04:15:09;;;;;;;45.25;43.15;;;;;;;-141.02;100.00;107971.50;5132997;28;20306;-70
2023/06/18 04:17:43;;;;;;;16.77;16.17;;;;;;;-141.02;100.00;107971.50;5132517;27;20224;-71
2023/06/18 04:20:11;;;;;;;17.30;16.70;;;;;;;-141.02;100.00;107971.50;5133385;27;20197;-69
2023/06/18 04:22:39;;;;;;;18.70;18.00;;;;;;;-141.02;100.00;107971.50;5132971;28;20728;-70
2023/06/18 04:25:07;;;;;;;37.67;35.88;;;;;;;-141.02;100.00;107971.50;5132963;28;20659;-69
2023/06/18 04:27:34;;;;;;;37.63;35.92;;;;;;;-141.02;100.00;107971.50;5133238;28;20275;-69
2023/06/18 04:30:01;;;;;;;38.50;36.75;;;;;;;-141.02;100.00;107971.50;5133150;28;20192;-69
2023/06/18 04:32:28;;;;;;;40.17;38.33;;;;;;;-141.02;100.00;107971.50;5133183;28;20279;-69
2023/06/18 04:34:56;;;;;;;42.20;40.20;;;;;;;-141.02;100.00;107971.50;5133048;28;20271;-69
2023/06/18 04:37:23;;;;;;;17.73;17.02;;;;;;;-141.02;100.00;107971.50;5132824;28;20192;-68
2023/06/18 04:39:51;;;;;;;19.17;18.38;;;;;;;-141.02;100.00;107971.50;5133047;27;20275;-68
2023/06/18 04:42:18;;;;;;;17.98;17.27;;;;;;;-141.02;100.00;107971.50;5132729;28;20737;-68
2023/06/18 04:44:45;;;;;;;19.30;18.50;;;;;;;-141.02;100.00;107971.50;5133113;28;20223;-68
2023/06/18 04:47:12;;;;;;;16.50;15.90;;;;;;;-141.02;100.00;107971.50;5132699;28;20195;-67
2023/06/18 04:49:39;;;;;;;15.95;15.35;;;;;;;-141.02;100.00;107971.50;5132799;28;20749;-67
2023/06/18 04:52:08;;;;;;;15.50;14.90;;;;;;;-141.02;100.00;107971.50;5132993;28;20271;-67
2023/06/18 04:54:35;;;;;;;15.20;14.60;;;;;;;-141.02;100.00;107971.50;5132994;27;20200;-66
2023/06/18 04:57:04;;;;;;;14.70;14.20;;;;;;;-141.02;100.00;107971.50;5132894;27;20273;-66
2023/06/18 04:59:31;;;;;;;14.35;13.85;;;;;;;-141.02;100.00;107971.50;5132901;28;20296;-66
2023/06/18 05:01:58;;;;;;;13.85;13.35;;;;;;;-141.02;100.00;107971.50;5132650;28;20199;-66
2023/06/18 05:04:25;;;;;;;13.77;13.27;;;;;;;-141.02;100.00;107971.50;5132892;28;20228;-66
2023/06/18 05:06:52;;;;;;;14.02;13.52;;;;;;;-141.02;100.00;107971.50;5132852;27;20200;-66
2023/06/18 05:09:19;;;;;;;13.63;13.13;;;;;;;-141.02;100.00;107971.50;5132478;28;20189;-66
2023/06/18 05:11:46;;;;;;;13.70;13.20;;;;;;;-141.02;100.00;107971.50;5132731;28;20200;-65
2023/06/18 05:14:15;;;;;;;13.00;12.60;;;;;;;-141.02;100.00;107971.50;5132542;28;20284;-65
2023/06/18 05:16:42;;;;;;;13.73;13.23;;;;;;;-141.02;100.00;107971.50;5132302;28;20323;-64
2023/06/18 05:19:08;;;;;;;13.88;13.38;;;;;;;-141.02;100.00;107971.50;5132443;28;20203;-64
2023/06/18 05:21:35;;;;;;;13.20;12.70;;;;;;;-141.02;100.00;107971.50;5132392;28;20718;-63
2023/06/18 05:24:02;;;;;;;14.43;13.82;;;;;;;-141.02;100.00;107971.50;5132407;28;20198;-63
2023/06/18 05:26:30;;;;;;;14.57;13.98;;;;;;;-141.02;100.00;107971.50;5132741;28;20275;-63
2023/06/18 05:28:58;;;;;;;16.30;15.50;;;;;;;-141.02;100.00;107971.50;5132542;27;20207;-63
2023/06/18 05:31:27;;;;;;;18.98;17.98;;;;;;;-141.02;100.00;107971.50;5135552;27;20195;-62
2023/06/18 05:33:54;;;;;;;19.05;18.05;;;;;;;-141.02;100.00;107971.50;5135897;27;20196;-62
2023/06/18 05:36:22;;;;;;;19.95;18.75;;;;;;;-141.02;100.00;107971.50;5136644;27;20713;-62
2023/06/18 05:38:50;;;;;;;21.98;20.58;;;;;;;-141.02;100.00;107971.50;5136198;27;20199;-62
2023/06/18 05:41:17;;;;;;;22.73;21.33;;;;;;;-141.02;100.00;107971.50;5135941;27;20222;-62
2023/06/18 05:43:44;;;;;;;24.85;23.35;;;;;;;-141.02;100.00;107971.50;5136159;27;20296;-62
2023/06/18 05:46:11;;;;;;;24.58;23.08;;;;;;;-141.02;100.00;107971.50;5135704;27;20684;-69
2023/06/18 05:48:39;;;;;;;21.63;20.33;;;;;;;-141.02;100.00;107971.50;5136013;27;20193;-62
2023/06/18 05:51:06;;;;;;;23.15;21.75;;;;;;;-141.02;100.00;107971.50;5135643;27;20697;-61
2023/06/18 05:53:33;;;;;;;22.40;21.00;;;;;;;-141.02;100.00;107971.50;5135932;27;20271;-61
2023/06/18 05:56:00;;;;;;;22.02;20.67;;;;;;;-141.02;100.00;107971.50;5135845;27;20234;-61
2023/06/18 05:58:27;;;;;;;24.42;22.92;;;;;;;-141.02;100.00;107971.50;5135783;27;20192;-62
2023/06/18 06:00:54;;;;;;;23.85;22.45;;;;;;;-141.02;100.00;107971.50;5135830;27;20192;-62
2023/06/18 06:03:21;;;;;;;21.15;19.95;;;;;;;-141.02;100.00;107971.50;5135721;27;20271;-62
2023/06/18 06:05:50;;;;;;;20.33;19.23;;;;;;;-141.02;100.00;107971.50;5135696;27;20227;-62
2023/06/18 06:08:17;;;;;;;20.55;19.35;;;;;;;-141.02;100.00;107971.50;5135375;27;20283;-62
2023/06/18 06:10:44;;;;;;;20.02;18.92;;;;;;;-141.02;100.00;107971.50;5135484;27;20220;-61
2023/06/18 06:13:11;;;;;;;19.60;18.60;;;;;;;-141.02;100.00;107971.50;5135225;27;20654;-61
2023/06/18 06:15:38;;;;;;;18.40;17.50;;;;;;;-141.02;100.00;107971.50;5134876;27;20231;-61
2023/06/18 06:18:05;;;;;;;16.58;15.77;;;;;;;-141.02;100.00;107971.50;5135459;27;20561;-61
2023/06/18 06:20:32;;;;;;;17.80;16.90;;;;;;;-141.02;100.00;107971.50;5135912;27;20210;-61
2023/06/18 06:23:01;;;;;;;19.58;18.58;;;;;;;-141.02;100.00;107971.50;5135340;27;20276;-61
2023/06/18 06:25:28;;;;;;;20.23;19.05;;;;;;;-141.02;100.00;107971.50;5135281;27;20193;-61
2023/06/18 06:27:55;;;;;;;20.20;19.10;;;;;;;-141.02;100.00;107971.50;5134949;27;20239;-61
2023/06/18 06:30:22;;;;;;;19.40;18.40;;;;;;;-141.02;100.00;107971.50;5135214;27;20188;-61
2023/06/18 06:32:49;;;;;;;18.52;17.52;;;;;;;-141.02;100.00;107971.50;5135140;27;20279;-61
2023/06/18 06:35:16;;;;;;;19.52;18.42;;;;;;;-141.02;100.00;107971.50;5134800;27;20228;-61
2023/06/18 06:37:44;;;;;;;18.45;17.55;;;;;;;-141.02;100.00;107971.50;5134659;27;20228;-60
2023/06/18 06:40:13;;;;;;;17.92;17.02;;;;;;;-141.02;100.00;107971.50;5134627;27;20585;-61
2023/06/18 06:42:40;;;;;;;18.77;17.77;;;;;;;-141.02;100.00;107971.50;5134553;27;20274;-60
2023/06/18 06:45:08;;;;;;;19.83;18.73;;;;;;;-141.02;100.00;107971.50;5134904;27;20196;-60
2023/06/18 06:47:35;;;;;;;19.05;18.00;;;;;;;-141.02;100.00;107971.50;5134548;27;20283;-60
2023/06/18 06:50:02;;;;;;;18.40;17.40;;;;;;;-141.02;100.00;107971.50;5134747;27;20267;-60
2023/06/18 06:52:29;;;;;;;17.52;16.63;;;;;;;-141.02;100.00;107971.50;5134733;27;20196;-60
2023/06/18 06:54:56;;;;;;;17.35;16.45;;;;;;;-141.02;100.00;107971.50;5134423;27;20692;-60
2023/06/18 06:57:24;;;;;;;17.55;16.65;;;;;;;-141.02;100.00;107971.50;5134559;27;20267;-60
2023/06/18 06:59:51;;;;;;;16.77;15.98;;;;;;;-141.02;100.00;107971.50;5134625;27;20242;-60
2023/06/18 07:02:19;;;;;;;16.08;15.27;;;;;;;-141.02;100.00;107971.50;5134529;27;20214;-60
2023/06/18 07:04:47;;;;;;;15.90;15.10;;;;;;;-141.02;100.00;107971.50;5134533;27;20192;-60
2023/06/18 07:07:15;;;;;;;16.70;15.90;;;;;;;-141.02;100.00;107971.50;5134090;27;20189;-60
2023/06/18 07:09:42;;;;;;;16.13;15.43;;;;;;;-141.02;100.00;107971.50;5134105;27;20197;-77
2023/06/18 07:12:10;;;;;;;16.20;15.50;;;;;;;-141.02;100.00;107971.50;5134366;27;20250;-77
2023/06/18 07:14:38;;;;;;;15.95;15.25;;;;;;;-141.02;100.00;107971.50;5134019;27;20279;-60
2023/06/18 07:17:05;;;;;;;16.00;15.20;;;;;;;-141.02;100.00;107971.50;5133726;27;20232;-60
2023/06/18 07:19:32;;;;;;;15.55;14.85;;;;;;;-141.02;100.00;107971.50;5134195;27;20229;-60
2023/06/18 07:21:59;;;;;;;15.45;14.75;;;;;;;-141.02;100.00;107971.50;5133897;27;20650;-60
2023/06/18 07:24:26;;;;;;;16.15;15.35;;;;;;;-141.02;100.00;107971.50;5134123;27;20247;-60
2023/06/18 07:26:53;;;;;;;15.90;15.20;;;;;;;-141.02;100.00;107971.50;5133731;27;20232;-60
2023/06/18 07:29:20;;;;;;;15.88;15.18;;;;;;;-141.02;100.00;107971.50;5133736;27;20232;-60
2023/06/18 07:31:48;;;;;;;15.40;14.70;;;;;;;-141.02;100.00;107971.50;5134015;27;20219;-61
2023/06/18 07:34:16;;;;;;;15.23;14.52;;;;;;;-141.02;100.00;107971.50;5133663;27;20288;-58
2023/06/18 07:36:43;;;;;;;14.73;14.13;;;;;;;-141.02;100.00;107971.50;5133501;27;20228;-60
2023/06/18 07:39:10;;;;;;;15.43;14.73;;;;;;;-141.02;100.00;107971.50;5133895;27;20197;-59
2023/06/18 07:41:37;;;;;;;15.00;14.40;;;;;;;-141.02;100.00;107971.50;5133807;27;20197;-60
2023/06/18 07:44:04;;;;;;;15.00;14.40;;;;;;;-141.02;100.00;107971.50;5133509;27;20202;-60
2023/06/18 07:46:33;;;;;;;14.50;13.90;;;;;;;-141.02;100.00;107971.50;5133747;27;20725;-60
2023/06/18 07:49:02;;;;;;;14.77;14.18;;;;;;;-141.02;100.00;107971.50;5133689;27;20192;-60
2023/06/18 07:51:29;;;;;;;14.65;14.05;;;;;;;-141.02;100.00;107971.50;5133705;27;20220;-60
2023/06/18 07:53:55;;;;;;;14.55;13.95;;;;;;;-141.02;100.00;107971.50;5133168;27;20718;-60
2023/06/18 07:56:24;;;;;;;14.25;13.65;;;;;;;-141.02;100.00;107971.50;5133208;27;20784;-60
2023/06/18 07:58:51;;;;;;;14.00;13.50;;;;;;;-141.02;100.00;107971.50;5133340;27;20203;-61
2023/06/18 08:01:18;;;;;;;14.70;14.10;;;;;;;-141.02;100.00;107971.50;5133515;27;20192;-60
2023/06/18 08:03:45;;;;;;;15.25;14.55;;;;;;;-141.02;100.00;107971.50;5133173;27;20618;-60
2023/06/18 08:06:14;;;;;;;15.57;14.88;;;;;;;-141.02;100.00;107971.50;5133133;27;20197;-61
2023/06/18 08:08:41;;;;;;;15.82;15.13;;;;;;;-141.02;100.00;107971.50;5133476;27;20275;-60
2023/06/18 08:11:07;;;;;;;16.20;15.40;;;;;;;-141.02;100.00;107971.50;5133125;27;20705;-60
2023/06/18 08:13:34;;;;;;;15.45;14.75;;;;;;;-141.02;100.00;107971.50;5133260;27;20203;-60
2023/06/18 08:16:01;;;;;;;16.30;15.50;;;;;;;-141.02;100.00;107971.50;5132987;28;20231;-60
2023/06/18 08:18:28;;;;;;;16.33;15.52;;;;;;;-141.02;100.00;107971.50;5133359;27;20280;-60
2023/06/18 08:20:55;;;;;;;17.20;16.30;;;;;;;-141.02;100.00;107971.50;5133076;28;20662;-60
2023/06/18 08:23:24;;;;;;;15.98;15.18;;;;;;;-141.02;100.00;107971.50;5132965;28;20750;-60
2023/06/18 08:25:51;;;;;;;17.13;16.23;;;;;;;-141.02;100.00;107971.50;5133219;28;20287;-60
2023/06/18 08:28:18;;;;;;;17.80;16.83;;;;;;;-141.02;100.00;107971.50;5133233;27;20203;-60
2023/06/18 08:30:45;;;;;;;18.48;17.38;;;;;;;-141.02;100.00;107971.50;5133149;28;20275;-61
2023/06/18 08:33:12;;;;;;;18.02;17.02;;;;;;;-141.02;100.00;107971.50;5132931;27;20235;-61
2023/06/18 08:35:39;;;;;;;17.52;16.52;;;;;;;-141.02;100.00;107971.50;5133181;28;20276;-60
2023/06/18 08:38:06;;;;;;;16.90;16.00;;;;;;;-141.02;100.00;107971.50;5132762;28;20704;-61
2023/06/18 08:40:37;;;;;;;16.85;15.95;;;;;;;-141.02;100.00;107971.50;5132782;28;20652;-61
2023/06/18 08:43:09;;;;;;;17.15;16.17;;;;;;;-141.02;100.00;107971.50;5133076;28;20565;-61
2023/06/18 08:45:36;;;;;;;17.65;16.65;;;;;;;-141.02;100.00;107971.50;5132838;27;20669;-61
2023/06/18 08:48:07;;;;;;;17.27;16.27;;;;;;;-141.02;100.00;107971.50;5132715;28;20188;-61
2023/06/18 08:50:36;;;;;;;17.20;16.20;;;;;;;-141.02;100.00;107971.50;5133116;27;20188;-61
2023/06/18 08:53:12;;;;;;;16.52;15.63;;;;;;;-141.02;100.00;107971.50;5132594;28;20589;-61
2023/06/18 08:55:42;;;;;;;16.42;15.52;;;;;;;-141.02;100.00;107971.50;5132693;27;20673;-61
2023/06/18 08:58:14;;;;;;;16.65;15.75;;;;;;;-141.02;100.00;107971.50;5132540;28;20230;-61
2023/06/18 09:00:41;;;;;;;16.10;15.25;;;;;;;-141.02;100.00;107971.50;5132995;28;20184;-61
2023/06/18 09:03:09;;;;;;;16.67;15.75;;;;;;;-141.02;100.00;107971.50;5132648;28;20258;-63
2023/06/18 09:05:36;;;;;;;16.98;15.98;;;;;;;-141.02;100.00;107971.50;5134299;27;20684;-61
2023/06/18 09:08:03;;;;;;;17.55;16.55;;;;;;;-141.02;100.00;107971.50;5136779;27;20193;-61
2023/06/18 09:10:30;;;;;;;17.15;16.15;;;;;;;-141.02;100.00;107971.50;5136873;27;20276;-61
2023/06/18 09:12:59;;;;;;;16.55;15.65;;;;;;;-141.02;100.00;107971.50;5136758;27;20235;-62
2023/06/18 09:15:26;;;;;;;16.73;15.82;;;;;;;-141.02;100.00;107971.50;5136062;27;20193;-63
2023/06/18 09:17:53;;;;;;;17.58;16.48;;;;;;;-141.02;100.00;107971.50;5136316;27;20223;-62
2023/06/18 09:20:21;;;;;;;17.48;16.38;;;;;;;-141.02;100.00;107971.50;5136275;27;20666;-62
2023/06/18 09:22:49;;;;;;;17.60;16.50;;;;;;;-141.02;100.00;107971.50;5136505;27;20275;-62
2023/06/18 09:25:20;;;;;;;17.88;16.67;;;;;;;-141.02;100.00;107971.50;5136192;27;20273;-62
2023/06/18 09:27:47;;;;;;;17.90;16.80;;;;;;;-141.02;100.00;107971.50;5136111;27;20195;-62
2023/06/18 09:30:22;;;;;;;17.75;16.65;;;;;;;-141.02;100.00;107971.50;5136136;27;20227;-74
2023/06/18 09:32:49;;;;;;;18.77;17.48;;;;;;;-141.02;100.00;107971.50;5136005;27;20634;-63
2023/06/18 09:35:17;;;;;;;19.27;17.88;;;;;;;-141.02;100.00;107971.50;5136320;27;20196;-63
2023/06/18 09:37:44;;;;;;;18.17;16.98;;;;;;;-141.02;100.00;107971.50;5136557;27;20250;-63
2023/06/18 09:40:16;;;;;;;18.35;17.05;;;;;;;-141.02;100.00;107971.50;5135893;27;20623;-63
2023/06/18 09:42:44;;;;;;;17.77;16.58;;;;;;;-141.02;100.00;107971.50;5135839;27;20200;-63
2023/06/18 09:45:14;;;;;;;18.17;16.88;;;;;;;-141.02;100.00;107971.50;5135753;27;20616;-72
2023/06/18 09:47:45;;;;;;;18.00;16.70;;;;;;;-141.02;100.00;107971.50;5136070;27;20575;-63
2023/06/18 09:50:12;;;;;;;18.42;17.02;;;;;;;-141.02;100.00;107971.50;5135750;27;20703;-64
2023/06/18 09:52:44;;;;;;;18.40;17.10;;;;;;;-141.02;100.00;107971.50;5135953;27;20241;-64
2023/06/18 09:55:27;;;;;;;18.00;16.70;;;;;;;-141.02;100.00;107971.50;5135829;27;20196;-64
2023/06/18 09:57:54;;;;;;;18.55;17.25;;;;;;;-141.02;100.00;107971.50;5135816;27;20233;-64
2023/06/18 10:00:22;;;;;;;18.77;17.38;;;;;;;-141.02;100.00;107971.50;5135845;27;20228;-65
2023/06/18 10:02:51;;;;;;;18.67;17.27;;;;;;;-141.02;100.00;107971.50;5135810;27;20222;-64
2023/06/18 10:05:18;;;;;;;18.80;17.30;;;;;;;-141.02;100.00;107971.50;5135585;27;20224;-65
2023/06/18 10:07:48;;;;;;;19.15;17.65;;;;;;;-141.02;100.00;107971.50;5135273;27;20658;-72
2023/06/18 10:10:16;;;;;;;19.15;17.65;;;;;;;-141.02;100.00;107971.50;5135324;27;20571;-65
2023/06/18 10:12:44;;;;;;;18.80;17.40;;;;;;;-141.02;100.00;107971.50;5135609;27;20196;-65
2023/06/18 10:15:12;;;;;;;19.05;17.55;;;;;;;-141.02;100.00;107971.50;5135509;27;20220;-65
2023/06/18 10:17:46;;;;;;;19.65;18.05;;;;;;;-141.02;100.00;107971.50;5134474;27;20228;-65
2023/06/18 10:20:15;;;;;;;18.60;17.20;;;;;;;-141.02;100.00;107971.50;5135077;27;20272;-74
2023/06/18 10:22:46;;;;;;;19.98;18.38;;;;;;;-141.02;100.00;107971.50;5134996;27;20288;-65
2023/06/18 10:25:14;;;;;;;18.48;17.08;;;;;;;-141.02;100.00;107971.50;5135336;27;20184;-65
2023/06/18 10:27:41;;;;;;;18.00;16.70;;;;;;;-141.02;100.00;107971.50;5134954;27;20574;-66
2023/06/18 10:30:09;;;;;;;18.30;17.00;;;;;;;-141.02;100.00;107971.50;5134815;27;20275;-66
2023/06/18 10:32:37;;;;;;;18.80;17.40;;;;;;;-141.02;100.00;107971.50;5134837;27;20686;-65
2023/06/18 10:35:08;;;;;;;17.92;16.63;;;;;;;-141.02;100.00;107971.50;5134854;27;20231;-65
2023/06/18 10:37:37;;;;;;;17.45;16.27;;;;;;;-141.02;100.00;107971.50;5134693;27;20728;-65
2023/06/18 10:40:06;;;;;;;18.35;16.95;;;;;;;-141.02;100.00;107971.50;5134987;27;20201;-65
2023/06/18 10:42:34;;;;;;;17.95;16.75;;;;;;;-141.02;100.00;107971.50;5135014;27;20196;-65
2023/06/18 10:45:10;;;;;;;18.25;16.85;;;;;;;-141.02;100.00;107971.50;5134898;27;20245;-65
2023/06/18 10:47:37;;;;;;;18.38;16.98;;;;;;;-141.02;100.00;107971.50;5134915;27;20275;-65
2023/06/18 10:50:16;;;;;;;18.35;16.95;;;;;;;-141.02;100.00;107971.50;5134738;27;20200;-65